Time;durP1;ratioP1;P1;durP2;ratioP2;P2;SDS_P1;SDS_P2;PMS_P1;PMS_P2;Temp;Humidity;BMP_temperature;BMP_pressure;BME280_temperature;BME280_humidity;BME280_pressure;Samples;Min_cycle;Max_cycle;Signal;HPM_P1;HPM_P2
2023/01/10 00:01:14;;;;;;;;;1.00;1.00;;;;;;;;5086524;27;45450;-66
2023/01/10 00:03:40;;;;;;;;;2.25;1.00;;;;;;;;5097398;27;45303;-66
2023/01/10 00:06:05;;;;;;;;;5.00;2.00;;;;;;;;5074747;27;45407;-66
2023/01/10 00:08:30;;;;;;;;;4.75;2.00;;;;;;;;5076776;28;47388;-66
2023/01/10 00:10:55;;;;;;;;;1.75;1.75;;;;;;;;5076838;28;45368;-66
2023/01/10 00:13:24;;;;;;;;;2.25;0.25;;;;;;;;5077224;28;45489;-66
2023/01/10 00:15:53;;;;;;;;;7.50;1.00;;;;;;;;5077054;28;45435;-66
2023/01/10 00:18:18;;;;;;;;;1.00;0.50;;;;;;;;5076636;28;46532;-66
2023/01/10 00:20:44;;;;;;;;;6.50;1.50;;;;;;;;5072570;27;45662;-66
2023/01/10 00:23:10;;;;;;;;;3.50;1.50;;;;;;;;5075933;28;45349;-66
2023/01/10 00:25:35;;;;;;;;;4.00;2.00;;;;;;;;5077266;28;45407;-66
2023/01/10 00:28:09;;;;;;;;;1.00;1.00;;;;;;;;5076500;28;46286;-66
2023/01/10 00:30:36;;;;;;;;;7.00;1.50;;;;;;;;5076607;27;45453;-67
2023/01/10 00:33:01;;;;;;;;;4.75;1.50;;;;;;;;5078980;28;45387;-67
2023/01/10 00:35:27;;;;;;;;;3.00;2.00;;;;;;;;5080293;27;45472;-67
2023/01/10 00:37:56;;;;;;;;;2.75;1.00;;;;;;;;5071718;28;46350;-66
2023/01/10 00:40:22;;;;;;;;;6.00;2.25;;;;;;;;5074822;27;45782;-67
2023/01/10 00:45:31;;;;;;;;;1.50;1.25;;;;;;;;5080225;27;45537;-66
2023/01/10 00:47:56;;;;;;;;;1.50;1.00;;;;;;;;5080046;28;45921;-67
2023/01/10 00:50:21;;;;;;;;;7.75;2.00;;;;;;;;5080825;27;45307;-67
2023/01/10 00:52:46;;;;;;;;;3.25;1.50;;;;;;;;5080057;28;45357;-67
2023/01/10 00:55:12;;;;;;;;;11.50;2.00;;;;;;;;5076804;28;46631;-66
2023/01/10 00:57:37;;;;;;;;;3.00;1.00;;;;;;;;5079376;28;45659;-66
2023/01/10 01:00:06;;;;;;;;;4.75;1.25;;;;;;;;5079724;27;45328;-67
2023/01/10 01:02:31;;;;;;;;;4.00;2.00;;;;;;;;5077793;28;45315;-67
2023/01/10 01:04:56;;;;;;;;;7.00;2.50;;;;;;;;5078095;28;45530;-67
2023/01/10 01:07:22;;;;;;;;;1.25;1.25;;;;;;;;5079541;28;45367;-67
2023/01/10 01:12:31;;;;;;;;;1.50;1.50;;;;;;;;5079708;27;45460;-66
2023/01/10 01:14:57;;;;;;;;;5.00;2.25;;;;;;;;5076546;28;45368;-66
2023/01/10 01:17:22;;;;;;;;;6.75;2.00;;;;;;;;5076518;28;46528;-66
2023/01/10 01:19:47;;;;;;;;;4.25;1.00;;;;;;;;5078427;28;45392;-67
2023/01/10 01:22:13;;;;;;;;;6.50;2.00;;;;;;;;5079100;28;45562;-66
2023/01/10 01:24:39;;;;;;;;;3.50;2.25;;;;;;;;5079662;28;45420;-67
2023/01/10 01:27:05;;;;;;;;;5.00;1.25;;;;;;;;5079214;27;45330;-67
2023/01/10 01:29:30;;;;;;;;;3.25;1.00;;;;;;;;5078660;27;45419;-66
2023/01/10 01:31:56;;;;;;;;;8.25;1.25;;;;;;;;5076960;27;45422;-66
2023/01/10 01:34:21;;;;;;;;;8.75;2.00;;;;;;;;5073441;28;45848;-66
2023/01/10 01:36:46;;;;;;;;;8.00;2.75;;;;;;;;5078935;27;45496;-66
2023/01/10 01:39:11;;;;;;;;;9.25;1.00;;;;;;;;5079017;28;45530;-66
2023/01/10 01:44:20;;;;;;;;;4.75;3.25;;;;;;;;5078069;28;45170;-67
2023/01/10 01:46:55;;;;;;;;;3.50;2.00;;;;;;;;5076958;28;45566;-67
2023/01/10 01:49:23;;;;;;;;;6.00;1.75;;;;;;;;5078659;28;45361;-66
2023/01/10 01:51:50;;;;;;;;;5.50;1.75;;;;;;;;5075341;27;45361;-67
2023/01/10 01:54:17;;;;;;;;;2.00;2.00;;;;;;;;5062715;28;45478;-66
2023/01/10 01:56:50;;;;;;;;;6.25;1.75;;;;;;;;5078537;28;46009;-66
2023/01/10 01:59:22;;;;;;;;;7.75;2.50;;;;;;;;5078537;28;45414;-66
2023/01/10 02:01:49;;;;;;;;;4.50;2.00;;;;;;;;5078649;28;45185;-67
2023/01/10 02:04:19;;;;;;;;;3.50;3.00;;;;;;;;5078555;28;45537;-67
2023/01/10 02:06:46;;;;;;;;;7.00;2.00;;;;;;;;5075789;28;46366;-67
2023/01/10 02:09:21;;;;;;;;;4.00;2.75;;;;;;;;5071483;28;45351;-67
2023/01/10 02:11:46;;;;;;;;;3.75;2.00;;;;;;;;5078575;28;45470;-66
2023/01/10 02:14:13;;;;;;;;;8.50;3.50;;;;;;;;5078606;28;45805;-67
2023/01/10 02:16:38;;;;;;;;;6.50;3.50;;;;;;;;5076364;28;45525;-67
2023/01/10 02:19:07;;;;;;;;;3.75;1.00;;;;;;;;5077576;28;45414;-67
2023/01/10 02:21:36;;;;;;;;;8.00;2.00;;;;;;;;5078567;28;45353;-67
2023/01/10 02:24:19;;;;;;;;;2.75;1.00;;;;;;;;5076042;28;45162;-66
2023/01/10 02:26:57;;;;;;;;;7.00;1.75;;;;;;;;5078064;28;46542;-67
2023/01/10 02:29:43;;;;;;;;;9.00;2.00;;;;;;;;5077376;27;45214;-67
2023/01/10 02:32:08;;;;;;;;;8.00;1.75;;;;;;;;4998741;28;45326;-67
2023/01/10 02:34:39;;;;;;;;;3.75;3.00;;;;;;;;5012069;28;45315;-67
2023/01/10 02:37:11;;;;;;;;;7.75;1.00;;;;;;;;4995899;28;46745;-67
2023/01/10 02:39:44;;;;;;;;;6.00;1.00;;;;;;;;5014516;28;45521;-66
2023/01/10 02:42:13;;;;;;;;;3.00;2.25;;;;;;;;5015702;28;45409;-67
2023/01/10 02:44:44;;;;;;;;;8.25;2.00;;;;;;;;5006184;28;45409;-66
2023/01/10 02:47:12;;;;;;;;;4.00;2.00;;;;;;;;5012845;28;46234;-67
2023/01/10 02:49:44;;;;;;;;;9.00;1.25;;;;;;;;5008872;28;45483;-66
2023/01/10 02:52:11;;;;;;;;;3.25;1.50;;;;;;;;4995941;28;45558;-67
2023/01/10 02:54:37;;;;;;;;;7.50;4.25;;;;;;;;5010968;28;45452;-67
2023/01/10 02:57:20;;;;;;;;;6.75;2.00;;;;;;;;5013607;28;48650;-67
2023/01/10 02:59:45;;;;;;;;;5.00;2.00;;;;;;;;5015457;28;45444;-67
2023/01/10 03:02:17;;;;;;;;;3.00;1.00;;;;;;;;5015202;28;45635;-67
2023/01/10 03:04:48;;;;;;;;;1.25;1.25;;;;;;;;5015372;28;45514;-67
2023/01/10 03:07:17;;;;;;;;;4.75;3.00;;;;;;;;5014985;28;46405;-67
2023/01/10 03:09:51;;;;;;;;;7.00;3.00;;;;;;;;5043999;28;45400;-67
2023/01/10 03:12:26;;;;;;;;;1.25;1.25;;;;;;;;5058174;28;45400;-67
2023/01/10 03:14:53;;;;;;;;;3.00;1.50;;;;;;;;5072570;28;45332;-67
2023/01/10 03:17:21;;;;;;;;;1.75;1.75;;;;;;;;5077644;27;46486;-67
2023/01/10 03:19:48;;;;;;;;;3.75;1.50;;;;;;;;5077431;28;45805;-67
2023/01/10 03:22:14;;;;;;;;;3.25;1.25;;;;;;;;5077551;28;45226;-67
2023/01/10 03:24:41;;;;;;;;;3.50;1.00;;;;;;;;5077606;28;45538;-67
2023/01/10 03:27:18;;;;;;;;;2.25;1.75;;;;;;;;5077171;28;46537;-67
2023/01/10 03:29:46;;;;;;;;;3.75;2.50;;;;;;;;5073885;28;45532;-67
2023/01/10 03:32:13;;;;;;;;;2.50;2.50;;;;;;;;5077595;28;45408;-67
2023/01/10 03:34:39;;;;;;;;;5.25;2.75;;;;;;;;5072123;27;45495;-67
2023/01/10 03:37:10;;;;;;;;;7.75;3.00;;;;;;;;5076976;28;47445;-67
2023/01/10 03:39:41;;;;;;;;;3.75;2.00;;;;;;;;5076726;28;45500;-67
2023/01/10 03:42:06;;;;;;;;;7.50;2.25;;;;;;;;5077107;28;45405;-66
2023/01/10 03:44:43;;;;;;;;;4.00;2.75;;;;;;;;5077519;28;45362;-67
2023/01/10 03:47:23;;;;;;;;;4.25;2.00;;;;;;;;5077357;27;46802;-66
2023/01/10 03:49:53;;;;;;;;;7.75;2.00;;;;;;;;5069657;28;45436;-67
2023/01/10 03:52:19;;;;;;;;;3.75;2.00;;;;;;;;5062334;27;45305;-67
2023/01/10 03:54:45;;;;;;;;;6.25;2.00;;;;;;;;5077232;28;45405;-66
2023/01/10 03:57:15;;;;;;;;;10.00;4.00;;;;;;;;5076853;28;46310;-67
2023/01/10 03:59:40;;;;;;;;;1.50;1.50;;;;;;;;5064180;28;45320;-67
2023/01/10 04:02:05;;;;;;;;;4.75;1.00;;;;;;;;5073965;28;45503;-67
2023/01/10 04:04:31;;;;;;;;;3.25;2.00;;;;;;;;5076947;28;45309;-67
2023/01/10 04:06:56;;;;;;;;;2.75;2.00;;;;;;;;5077623;28;47221;-67
2023/01/10 04:09:21;;;;;;;;;3.00;2.00;;;;;;;;5080553;28;45221;-67
2023/01/10 04:11:47;;;;;;;;;6.25;3.75;;;;;;;;5079963;28;45379;-67
2023/01/10 04:14:12;;;;;;;;;2.75;1.00;;;;;;;;5080703;28;45407;-67
2023/01/10 04:16:37;;;;;;;;;3.25;2.00;;;;;;;;5075200;28;45544;-67
2023/01/10 04:19:02;;;;;;;;;2.00;2.00;;;;;;;;5080320;28;45444;-67
2023/01/10 04:21:27;;;;;;;;;3.50;2.50;;;;;;;;5066342;27;45572;-67
2023/01/10 04:23:53;;;;;;;;;2.75;2.75;;;;;;;;5079390;28;45344;-67
2023/01/10 04:26:18;;;;;;;;;3.00;2.00;;;;;;;;5079772;28;45436;-66
2023/01/10 04:28:43;;;;;;;;;1.25;1.00;;;;;;;;5061690;28;45421;-67
2023/01/10 04:31:08;;;;;;;;;4.25;2.00;;;;;;;;5078103;27;45441;-67
2023/01/10 04:33:33;;;;;;;;;4.50;0.75;;;;;;;;5080293;27;45348;-67
2023/01/10 04:35:59;;;;;;;;;2.75;2.00;;;;;;;;5079524;28;46650;-66
2023/01/10 04:38:24;;;;;;;;;6.00;2.00;;;;;;;;5080038;28;45336;-67
2023/01/10 04:40:53;;;;;;;;;3.25;1.00;;;;;;;;5079830;28;45569;-66
2023/01/10 04:43:18;;;;;;;;;4.25;3.00;;;;;;;;5080339;28;45496;-67
2023/01/10 04:45:43;;;;;;;;;8.00;4.33;;;;;;;;5077525;28;46566;-66
2023/01/10 04:48:08;;;;;;;;;4.25;2.00;;;;;;;;5069082;28;45431;-66
2023/01/10 04:50:34;;;;;;;;;5.50;3.25;;;;;;;;5077800;27;45363;-67
2023/01/10 04:52:59;;;;;;;;;3.50;2.25;;;;;;;;5079526;28;45474;-66
2023/01/10 04:55:24;;;;;;;;;4.75;1.50;;;;;;;;5079880;28;45475;-67
2023/01/10 04:57:49;;;;;;;;;2.50;1.50;;;;;;;;5079915;28;45610;-67
2023/01/10 05:00:15;;;;;;;;;6.50;2.50;;;;;;;;5080089;28;45434;-67
2023/01/10 05:02:42;;;;;;;;;3.75;1.25;;;;;;;;5077483;28;45348;-67
2023/01/10 05:05:09;;;;;;;;;5.50;1.00;;;;;;;;5073815;27;46126;-67
2023/01/10 05:07:35;;;;;;;;;4.50;2.00;;;;;;;;5079546;28;45639;-67
2023/01/10 05:10:00;;;;;;;;;3.50;2.00;;;;;;;;5079614;28;45461;-67
2023/01/10 05:12:25;;;;;;;;;3.75;2.25;;;;;;;;5070668;27;45488;-66
2023/01/10 05:14:50;;;;;;;;;2.00;1.50;;;;;;;;5075920;27;45441;-66
2023/01/10 05:17:16;;;;;;;;;4.00;2.00;;;;;;;;5079675;28;45469;-66
2023/01/10 05:19:41;;;;;;;;;3.50;2.00;;;;;;;;5078710;28;45418;-67
2023/01/10 05:22:06;;;;;;;;;9.00;4.00;;;;;;;;5079729;28;45368;-67
2023/01/10 05:24:31;;;;;;;;;6.75;5.50;;;;;;;;5079319;28;45423;-66
2023/01/10 05:26:56;;;;;;;;;6.00;3.00;;;;;;;;5079240;28;45403;-67
2023/01/10 05:29:21;;;;;;;;;2.50;1.50;;;;;;;;5076215;28;45633;-66
2023/01/10 05:31:49;;;;;;;;;4.00;1.75;;;;;;;;5074138;28;45435;-67
2023/01/10 05:34:14;;;;;;;;;3.50;2.00;;;;;;;;5078687;28;46458;-67
2023/01/10 05:36:39;;;;;;;;;6.75;4.75;;;;;;;;5077968;28;45737;-66
2023/01/10 05:39:05;;;;;;;;;3.00;3.00;;;;;;;;5079018;28;45455;-66
2023/01/10 05:41:30;;;;;;;;;3.75;2.00;;;;;;;;5078976;28;45536;-66
2023/01/10 05:43:55;;;;;;;;;5.25;2.00;;;;;;;;5078756;28;46320;-66
2023/01/10 05:46:20;;;;;;;;;4.75;4.25;;;;;;;;5072487;27;45518;-67
2023/01/10 05:48:45;;;;;;;;;3.75;3.00;;;;;;;;5078306;28;45630;-66
2023/01/10 05:51:11;;;;;;;;;2.25;1.00;;;;;;;;5078951;27;45415;-66
2023/01/10 05:53:36;;;;;;;;;3.75;2.25;;;;;;;;5078131;28;47100;-66
2023/01/10 05:56:02;;;;;;;;;6.25;1.00;;;;;;;;5078654;28;45428;-66
2023/01/10 05:58:28;;;;;;;;;3.50;2.50;;;;;;;;5063639;28;45207;-66
2023/01/10 06:00:54;;;;;;;;;4.00;3.00;;;;;;;;5078684;28;45477;-67
2023/01/10 06:03:19;;;;;;;;;10.33;7.00;;;;;;;;5078487;28;46372;-67
2023/01/10 06:05:45;;;;;;;;;3.25;2.75;;;;;;;;5076197;28;45585;-67
2023/01/10 06:08:10;;;;;;;;;7.00;2.25;;;;;;;;5078423;28;45333;-67
2023/01/10 06:10:35;;;;;;;;;6.00;1.25;;;;;;;;5078131;28;45974;-67
2023/01/10 06:13:00;;;;;;;;;7.67;5.67;;;;;;;;5078514;28;45383;-67
2023/01/10 06:15:26;;;;;;;;;7.50;2.00;;;;;;;;5078227;28;45459;-67
2023/01/10 06:17:52;;;;;;;;;8.33;7.00;;;;;;;;5078370;28;45327;-67
2023/01/10 06:20:17;;;;;;;;;7.75;3.00;;;;;;;;5077453;28;45431;-67
2023/01/10 06:22:42;;;;;;;;;6.00;2.75;;;;;;;;5071081;28;46541;-67
2023/01/10 06:25:09;;;;;;;;;12.67;7.33;;;;;;;;5077175;28;45479;-67
2023/01/10 06:27:34;;;;;;;;;6.75;2.00;;;;;;;;5078260;28;45510;-67
2023/01/10 06:30:00;;;;;;;;;4.00;4.00;;;;;;;;5077796;27;45542;-68
2023/01/10 06:32:25;;;;;;;;;5.00;3.00;;;;;;;;5077603;28;47045;-67
2023/01/10 06:34:50;;;;;;;;;14.33;9.33;;;;;;;;5078054;28;45419;-67
2023/01/10 06:37:16;;;;;;;;;10.67;7.00;;;;;;;;5074675;28;45475;-67
2023/01/10 06:39:41;;;;;;;;;3.75;3.00;;;;;;;;5078271;28;45411;-66
2023/01/10 06:42:06;;;;;;;;;13.00;5.33;;;;;;;;5078187;28;45581;-67
2023/01/10 06:44:31;;;;;;;;;6.33;6.33;;;;;;;;5077753;28;45629;-67
2023/01/10 06:46:56;;;;;;;;;6.00;4.00;;;;;;;;5077984;28;45715;-67
2023/01/10 06:49:22;;;;;;;;;12.00;4.00;;;;;;;;5078013;28;46713;-66
2023/01/10 06:51:47;;;;;;;;;4.00;3.33;;;;;;;;5077809;28;45344;-67
2023/01/10 06:54:12;;;;;;;;;6.75;2.25;;;;;;;;5074920;27;45369;-67
2023/01/10 06:56:37;;;;;;;;;5.75;3.50;;;;;;;;5077264;28;45243;-67
2023/01/10 06:59:02;;;;;;;;;9.00;3.75;;;;;;;;5078256;27;45484;-67
2023/01/10 07:01:28;;;;;;;;;10.33;3.00;;;;;;;;5077937;27;45578;-67
2023/01/10 07:03:53;;;;;;;;;4.67;3.00;;;;;;;;5078054;28;45214;-66
2023/01/10 07:06:18;;;;;;;;;11.33;5.67;;;;;;;;5076161;27;45463;-66
2023/01/10 07:08:45;;;;;;;;;7.00;3.00;;;;;;;;5077882;28;45789;-67
2023/01/10 07:11:11;;;;;;;;;6.00;3.00;;;;;;;;5075283;28;46334;-67
2023/01/10 07:13:36;;;;;;;;;14.25;5.00;;;;;;;;5077787;27;45447;-67
2023/01/10 07:16:05;;;;;;;;;6.00;3.50;;;;;;;;5077875;28;45775;-67
2023/01/10 07:18:33;;;;;;;;;9.33;6.00;;;;;;;;5076177;27;45541;-67
2023/01/10 07:20:58;;;;;;;;;8.25;4.00;;;;;;;;5077153;27;45405;-67
2023/01/10 07:23:23;;;;;;;;;20.67;17.67;;;;;;;;5073968;28;45332;-67
2023/01/10 07:25:48;;;;;;;;;10.33;7.00;;;;;;;;5077835;28;45334;-67
2023/01/10 07:28:13;;;;;;;;;10.67;8.00;;;;;;;;5076975;28;45225;-67
2023/01/10 07:30:39;;;;;;;;;9.33;7.67;;;;;;;;5071334;27;47103;-67
2023/01/10 07:33:05;;;;;;;;;13.67;8.00;;;;;;;;5071302;27;45353;-67
2023/01/10 07:35:30;;;;;;;;;11.33;7.67;;;;;;;;5075146;27;45448;-67
2023/01/10 07:37:59;;;;;;;;;9.00;8.00;;;;;;;;5073405;27;45490;-67
2023/01/10 07:40:25;;;;;;;;;9.33;4.67;;;;;;;;5075006;27;46106;-67
2023/01/10 07:42:57;;;;;;;;;9.00;5.33;;;;;;;;5076337;28;45221;-67
2023/01/10 07:45:22;;;;;;;;;12.25;8.00;;;;;;;;5077657;28;45391;-67
2023/01/10 07:47:47;;;;;;;;;8.00;6.50;;;;;;;;5077567;28;45300;-67
2023/01/10 07:50:13;;;;;;;;;13.33;4.00;;;;;;;;5077576;28;45528;-67
2023/01/10 07:52:38;;;;;;;;;8.25;5.00;;;;;;;;5077242;28;45402;-67
2023/01/10 07:55:04;;;;;;;;;17.00;10.00;;;;;;;;5077405;28;45391;-67
2023/01/10 07:57:29;;;;;;;;;10.00;6.75;;;;;;;;5077613;28;45284;-67
2023/01/10 07:59:54;;;;;;;;;12.75;6.75;;;;;;;;5077131;28;45507;-67
2023/01/10 08:02:20;;;;;;;;;6.00;4.00;;;;;;;;5077418;28;45446;-67
2023/01/10 08:04:45;;;;;;;;;7.50;3.50;;;;;;;;5077363;28;45506;-67
2023/01/10 08:07:10;;;;;;;;;7.00;2.75;;;;;;;;5077389;28;45375;-67
2023/01/10 08:09:35;;;;;;;;;8.50;3.25;;;;;;;;5077032;28;45719;-67
2023/01/10 08:12:01;;;;;;;;;6.75;4.00;;;;;;;;5077380;28;45579;-67
2023/01/10 08:14:26;;;;;;;;;11.75;4.00;;;;;;;;5077366;28;45324;-67
2023/01/10 08:16:51;;;;;;;;;10.50;6.75;;;;;;;;5077460;28;45194;-67
2023/01/10 08:19:17;;;;;;;;;6.25;6.00;;;;;;;;5076917;28;46084;-67
2023/01/10 08:21:42;;;;;;;;;4.00;4.00;;;;;;;;5076959;28;45213;-67
2023/01/10 08:24:07;;;;;;;;;9.75;6.00;;;;;;;;5076975;27;45656;-67
2023/01/10 08:26:33;;;;;;;;;7.00;3.75;;;;;;;;5077231;28;45368;-67
2023/01/10 08:28:59;;;;;;;;;4.75;4.00;;;;;;;;5076816;28;46361;-67
2023/01/10 08:31:24;;;;;;;;;8.00;5.25;;;;;;;;5076587;28;45368;-67
2023/01/10 08:33:49;;;;;;;;;9.00;5.25;;;;;;;;5058726;28;45307;-67
2023/01/10 08:36:18;;;;;;;;;8.67;3.67;;;;;;;;5076926;28;45371;-67
2023/01/10 08:38:44;;;;;;;;;9.25;4.25;;;;;;;;5076713;28;45533;-67
2023/01/10 08:41:10;;;;;;;;;9.50;4.00;;;;;;;;5076647;28;45371;-67
2023/01/10 08:43:35;;;;;;;;;5.67;5.67;;;;;;;;5076728;28;45523;-67
2023/01/10 08:46:00;;;;;;;;;14.00;3.00;;;;;;;;5077070;28;45314;-67
2023/01/10 08:48:25;;;;;;;;;8.00;4.00;;;;;;;;5076552;28;45426;-67
2023/01/10 08:50:50;;;;;;;;;6.50;4.00;;;;;;;;5076697;28;45278;-67
2023/01/10 08:53:15;;;;;;;;;12.67;8.33;;;;;;;;5077712;28;45420;-67
2023/01/10 08:55:41;;;;;;;;;8.67;5.33;;;;;;;;5080292;27;45368;-67
2023/01/10 08:58:06;;;;;;;;;8.25;5.25;;;;;;;;5079285;28;46325;-67
2023/01/10 09:00:31;;;;;;;;;6.00;3.50;;;;;;;;5079985;28;45397;-67
2023/01/10 09:02:56;;;;;;;;;6.50;4.00;;;;;;;;5080212;28;45233;-67
2023/01/10 09:05:22;;;;;;;;;7.75;4.00;;;;;;;;5080272;28;45367;-67
2023/01/10 09:07:47;;;;;;;;;7.33;5.33;;;;;;;;5079945;27;46391;-68
2023/01/10 09:10:12;;;;;;;;;13.50;3.75;;;;;;;;5079673;28;45349;-67
2023/01/10 09:12:55;;;;;;;;;4.00;4.00;;;;;;;;5079783;28;45435;-67
2023/01/10 09:15:25;;;;;;;;;3.25;1.50;;;;;;;;5079994;27;45364;-67
2023/01/10 09:17:57;;;;;;;;;6.00;2.75;;;;;;;;5079677;27;45439;-67
2023/01/10 09:20:23;;;;;;;;;4.75;2.00;;;;;;;;5079520;28;45195;-66
2023/01/10 09:22:49;;;;;;;;;7.67;6.67;;;;;;;;5079672;28;45396;-67
2023/01/10 09:25:14;;;;;;;;;4.00;3.00;;;;;;;;5079788;28;45367;-67
2023/01/10 09:27:39;;;;;;;;;14.33;10.67;;;;;;;;5079419;27;45699;-67
2023/01/10 09:30:05;;;;;;;;;6.67;5.00;;;;;;;;5079366;28;45270;-65
2023/01/10 09:32:30;;;;;;;;;9.25;6.25;;;;;;;;5079658;28;45325;-65
2023/01/10 09:34:55;;;;;;;;;7.00;6.67;;;;;;;;5079804;28;45290;-66
2023/01/10 09:37:20;;;;;;;;;8.67;5.00;;;;;;;;5079442;27;46475;-66
2023/01/10 09:39:46;;;;;;;;;8.00;5.67;;;;;;;;5079294;28;45332;-66
2023/01/10 09:42:11;;;;;;;;;3.25;2.00;;;;;;;;5079567;28;45431;-65
2023/01/10 09:44:36;;;;;;;;;6.75;4.25;;;;;;;;5079617;28;45417;-65
2023/01/10 09:47:11;;;;;;;;;4.00;4.00;;;;;;;;5079177;27;46494;-65
2023/01/10 09:49:36;;;;;;;;;7.50;7.25;;;;;;;;5079360;28;45447;-65
2023/01/10 09:52:07;;;;;;;;;8.75;5.00;;;;;;;;5079289;27;45527;-65
2023/01/10 09:54:37;;;;;;;;;8.25;5.25;;;;;;;;5079130;28;45224;-66
2023/01/10 09:57:02;;;;;;;;;4.50;3.00;;;;;;;;5078173;28;45258;-66
2023/01/10 09:59:31;;;;;;;;;5.50;4.25;;;;;;;;5060659;28;46310;-65
2023/01/10 10:02:05;;;;;;;;;5.50;4.00;;;;;;;;5079112;28;45258;-66
2023/01/10 10:04:34;;;;;;;;;10.00;3.75;;;;;;;;5078526;27;45418;-65
2023/01/10 10:06:59;;;;;;;;;7.75;3.25;;;;;;;;5078613;28;45790;-65
2023/01/10 10:09:26;;;;;;;;;10.00;7.33;;;;;;;;5078805;28;45344;-65
2023/01/10 10:12:01;;;;;;;;;8.50;4.25;;;;;;;;5079188;28;45366;-65
2023/01/10 10:14:51;;;;;;;;;8.50;3.75;;;;;;;;5079001;28;45431;-66
2023/01/10 10:17:26;;;;;;;;;8.25;4.00;;;;;;;;5078528;28;47468;-66
2023/01/10 10:20:10;;;;;;;;;9.75;4.50;;;;;;;;5078433;28;45367;-66
2023/01/10 10:22:38;;;;;;;;;3.75;3.75;;;;;;;;5078475;28;45510;-65
2023/01/10 10:25:03;;;;;;;;;5.25;4.00;;;;;;;;5078873;28;45307;-65
2023/01/10 10:27:34;;;;;;;;;7.00;4.25;;;;;;;;5078316;28;45514;-66
2023/01/10 10:30:10;;;;;;;;;3.75;3.75;;;;;;;;5078419;28;45418;-66
2023/01/10 10:32:54;;;;;;;;;4.00;4.00;;;;;;;;5078514;28;45424;-65
2023/01/10 10:35:28;;;;;;;;;9.25;4.75;;;;;;;;5078883;28;45876;-66
2023/01/10 10:37:55;;;;;;;;;5.25;3.25;;;;;;;;5078259;28;47192;-66
2023/01/10 10:40:24;;;;;;;;;7.00;4.75;;;;;;;;5078192;27;45187;-66
2023/01/10 10:42:53;;;;;;;;;8.50;4.25;;;;;;;;5078454;27;45402;-66
2023/01/10 10:45:21;;;;;;;;;4.75;4.25;;;;;;;;5078381;27;45721;-66
2023/01/10 10:47:54;;;;;;;;;5.00;3.00;;;;;;;;5076643;28;46515;-66
2023/01/10 10:50:19;;;;;;;;;3.25;3.00;;;;;;;;5078256;28;45496;-67
2023/01/10 10:52:45;;;;;;;;;9.50;3.25;;;;;;;;5078386;28;45363;-67
2023/01/10 10:55:15;;;;;;;;;11.00;7.00;;;;;;;;5078288;28;45521;-67
2023/01/10 10:57:40;;;;;;;;;4.50;3.75;;;;;;;;5078211;27;45580;-67
2023/01/10 11:00:07;;;;;;;;;8.00;3.75;;;;;;;;5078041;27;45503;-68
2023/01/10 11:02:50;;;;;;;;;11.75;6.25;;;;;;;;5077872;27;45364;-69
2023/01/10 11:05:20;;;;;;;;;8.50;4.75;;;;;;;;5078292;28;45449;-69
2023/01/10 11:07:46;;;;;;;;;5.50;4.25;;;;;;;;5077781;28;45357;-68
2023/01/10 11:12:46;;;;;;;;;13.00;5.75;;;;;;;;5078093;28;45336;-68
2023/01/10 11:15:32;;;;;;;;;5.25;3.00;;;;;;;;5077929;28;45415;-69
2023/01/10 11:18:05;;;;;;;;;5.00;3.25;;;;;;;;5077435;28;46433;-69
2023/01/10 11:20:30;;;;;;;;;8.50;2.00;;;;;;;;5077649;27;45349;-69
2023/01/10 11:22:55;;;;;;;;;2.25;2.25;;;;;;;;5077818;28;45325;-69
2023/01/10 11:25:21;;;;;;;;;3.75;3.50;;;;;;;;5077807;28;45431;-69
2023/01/10 11:27:51;;;;;;;;;8.00;4.00;;;;;;;;5077705;28;46322;-69
2023/01/10 11:30:19;;;;;;;;;4.25;3.50;;;;;;;;5077349;28;45456;-68
2023/01/10 11:33:14;;;;;;;;;3.75;2.50;;;;;;;;5077797;28;45485;-69
2023/01/10 11:35:40;;;;;;;;;3.50;3.00;;;;;;;;4995253;28;45384;-69
2023/01/10 11:38:17;;;;;;;;;3.00;3.00;;;;;;;;4994999;28;47360;-69
2023/01/10 11:40:52;;;;;;;;;9.00;4.25;;;;;;;;4995100;28;45445;-69
2023/01/10 11:43:25;;;;;;;;;2.00;2.00;;;;;;;;4995373;28;45398;-69
2023/01/10 11:45:52;;;;;;;;;3.25;3.00;;;;;;;;4995141;28;45409;-69
2023/01/10 11:48:21;;;;;;;;;3.25;3.25;;;;;;;;4995052;28;46519;-69
2023/01/10 11:50:51;;;;;;;;;9.50;3.25;;;;;;;;4994976;28;45594;-69
2023/01/10 11:53:34;;;;;;;;;9.00;6.00;;;;;;;;4995097;28;45328;-68
2023/01/10 11:56:00;;;;;;;;;4.00;4.00;;;;;;;;4995153;28;45548;-69
2023/01/10 11:58:29;;;;;;;;;9.25;5.25;;;;;;;;4995004;28;45560;-69
2023/01/10 12:00:54;;;;;;;;;8.75;4.25;;;;;;;;4994858;28;45393;-69
2023/01/10 12:03:19;;;;;;;;;7.00;3.25;;;;;;;;4995186;28;45291;-69
2023/01/10 12:05:48;;;;;;;;;4.50;3.25;;;;;;;;4995122;28;45361;-69
2023/01/10 12:08:25;;;;;;;;;9.75;7.50;;;;;;;;4994637;28;45504;-69
2023/01/10 12:10:57;;;;;;;;;3.50;2.00;;;;;;;;4994726;28;45450;-69
2023/01/10 12:13:22;;;;;;;;;8.00;4.00;;;;;;;;5077349;28;45490;-69
2023/01/10 12:15:48;;;;;;;;;2.25;1.00;;;;;;;;5077345;27;45348;-69
2023/01/10 12:18:16;;;;;;;;;3.75;3.75;;;;;;;;5077051;27;46326;-69
2023/01/10 12:20:46;;;;;;;;;4.00;2.00;;;;;;;;5076810;28;45367;-69
2023/01/10 12:23:15;;;;;;;;;7.50;4.00;;;;;;;;5077033;28;45488;-69
2023/01/10 12:25:41;;;;;;;;;8.00;5.00;;;;;;;;5077321;28;45329;-69
2023/01/10 12:28:16;;;;;;;;;5.25;5.00;;;;;;;;5077778;28;46811;-69
2023/01/10 12:30:43;;;;;;;;;4.00;4.00;;;;;;;;5080278;28;45475;-69
2023/01/10 12:33:14;;;;;;;;;3.75;2.00;;;;;;;;5080655;28;45383;-69
2023/01/10 12:35:59;;;;;;;;;4.75;3.00;;;;;;;;5080567;28;45529;-69
2023/01/10 12:44:15;;;;;;;;;6.50;5.00;;;;;;;;4998073;28;45433;-68
2023/01/10 12:46:48;;;;;;;;;6.50;4.75;;;;;;;;4998002;28;45436;-69
2023/01/10 12:49:21;;;;;;;;;9.50;2.00;;;;;;;;4997545;28;45510;-69
2023/01/10 12:51:48;;;;;;;;;4.50;4.00;;;;;;;;4997921;28;45523;-69
2023/01/10 12:54:19;;;;;;;;;4.00;2.00;;;;;;;;4997714;28;45452;-69
2023/01/10 12:56:45;;;;;;;;;3.25;3.25;;;;;;;;4997745;28;45596;-70
2023/01/10 12:59:22;;;;;;;;;9.00;5.00;;;;;;;;4997427;28;46306;-69
2023/01/10 13:01:50;;;;;;;;;1.75;1.75;;;;;;;;4997370;28;45464;-70
2023/01/10 13:04:19;;;;;;;;;4.25;3.00;;;;;;;;4997729;28;45507;-69
2023/01/10 13:06:44;;;;;;;;;3.50;3.00;;;;;;;;4997805;28;45286;-69
2023/01/10 13:09:13;;;;;;;;;3.75;3.00;;;;;;;;4997216;28;46433;-70
2023/01/10 13:11:53;;;;;;;;;6.25;2.00;;;;;;;;4997299;28;45485;-69
2023/01/10 13:14:21;;;;;;;;;3.50;2.00;;;;;;;;4997785;28;45553;-69
2023/01/10 13:17:08;;;;;;;;;3.25;3.25;;;;;;;;5080187;28;45300;-69
2023/01/10 13:19:34;;;;;;;;;4.00;3.75;;;;;;;;5079674;28;45562;-69
2023/01/10 13:22:17;;;;;;;;;3.75;3.75;;;;;;;;5079533;28;45579;-70
2023/01/10 13:24:53;;;;;;;;;7.00;4.00;;;;;;;;5079862;27;45348;-69
2023/01/10 13:27:19;;;;;;;;;9.00;4.00;;;;;;;;5079797;28;45355;-69
2023/01/10 13:29:46;;;;;;;;;2.00;1.00;;;;;;;;5079240;27;46045;-69
2023/01/10 13:32:19;;;;;;;;;3.75;2.50;;;;;;;;5079441;28;45237;-70
2023/01/10 13:34:44;;;;;;;;;3.25;3.25;;;;;;;;5079780;27;45317;-69
2023/01/10 13:37:22;;;;;;;;;4.75;3.50;;;;;;;;5079684;28;45371;-69
2023/01/10 13:39:51;;;;;;;;;3.50;1.00;;;;;;;;5077985;28;46292;-69
2023/01/10 13:45:12;;;;;;;;;3.00;3.00;;;;;;;;5079654;28;45230;-69
2023/01/10 13:47:40;;;;;;;;;3.75;3.50;;;;;;;;5079533;28;45455;-69
2023/01/10 13:50:35;;;;;;;;;4.00;4.00;;;;;;;;5079011;28;46261;-69
2023/01/10 13:53:01;;;;;;;;;4.00;3.00;;;;;;;;5079133;28;45354;-69
2023/01/10 13:55:27;;;;;;;;;3.75;2.75;;;;;;;;5079215;28;45397;-69
2023/01/10 13:58:00;;;;;;;;;3.25;2.25;;;;;;;;5079387;28;45464;-70
2023/01/10 14:03:28;;;;;;;;;5.00;4.00;;;;;;;;5078879;28;45355;-70
2023/01/10 14:05:54;;;;;;;;;6.50;4.50;;;;;;;;5079005;28;45482;-69
2023/01/10 14:08:20;;;;;;;;;7.50;6.50;;;;;;;;5079422;28;45383;-69
2023/01/10 14:10:46;;;;;;;;;5.00;4.00;;;;;;;;5078818;28;45326;-69
2023/01/10 14:13:19;;;;;;;;;5.75;3.75;;;;;;;;5078690;28;45259;-69
2023/01/10 14:15:45;;;;;;;;;4.00;4.00;;;;;;;;5079218;28;45340;-69
2023/01/10 14:18:19;;;;;;;;;7.75;4.00;;;;;;;;5079116;28;45787;-69
2023/01/10 14:20:54;;;;;;;;;4.00;4.00;;;;;;;;5078553;28;46140;-70
2023/01/10 14:23:21;;;;;;;;;8.67;5.00;;;;;;;;5078798;28;45352;-69
2023/01/10 14:25:52;;;;;;;;;5.00;5.00;;;;;;;;5078596;28;45173;-69
2023/01/10 14:28:22;;;;;;;;;3.00;3.00;;;;;;;;5078659;28;45368;-70
2023/01/10 14:31:08;;;;;;;;;9.25;8.50;;;;;;;;5078234;28;46669;-70
2023/01/10 14:33:34;;;;;;;;;5.00;4.00;;;;;;;;5077862;28;45401;-69
2023/01/10 14:36:08;;;;;;;;;5.25;4.25;;;;;;;;5078609;28;45493;-69
2023/01/10 14:38:35;;;;;;;;;9.50;6.25;;;;;;;;5078669;28;45470;-69
2023/01/10 14:41:23;;;;;;;;;3.75;3.50;;;;;;;;5078281;28;45455;-69
2023/01/10 14:43:48;;;;;;;;;5.00;4.00;;;;;;;;5078325;28;45324;-69
2023/01/10 14:46:23;;;;;;;;;4.75;3.50;;;;;;;;5078518;28;45454;-69
2023/01/10 14:48:49;;;;;;;;;5.00;3.25;;;;;;;;5078593;28;45557;-69
2023/01/10 14:51:19;;;;;;;;;3.00;1.00;;;;;;;;5077933;28;45443;-69
2023/01/10 14:53:45;;;;;;;;;11.33;11.00;;;;;;;;5078118;28;45414;-70
2023/01/10 14:56:39;;;;;;;;;7.75;5.75;;;;;;;;5078235;28;45739;-70
2023/01/10 14:59:23;;;;;;;;;6.50;6.50;;;;;;;;4995861;28;45411;-69
2023/01/10 15:01:49;;;;;;;;;6.75;5.50;;;;;;;;4995477;28;46250;-69
2023/01/10 15:04:19;;;;;;;;;5.50;3.75;;;;;;;;4995839;28;45518;-69
2023/01/10 15:06:58;;;;;;;;;9.25;6.00;;;;;;;;4995703;28;45456;-70
2023/01/10 15:09:24;;;;;;;;;7.75;5.00;;;;;;;;4995791;28;45509;-69